sensor_id;sensor_type;location;lat;lon;timestamp;pressure;altitude;pressure_sealevel;temperature;humidity
9035;BME280;4552;43.422;24.592;2023-05-07T06:56:30;100249.91;;;21.37;39.24
9035;BME280;4552;43.422;24.592;2023-05-07T06:58:57;100251.38;;;21.43;39.44
9035;BME280;4552;43.422;24.592;2023-05-07T07:01:24;100256.25;;;21.35;39.29
9035;BME280;4552;43.422;24.592;2023-05-07T07:03:51;100251.66;;;21.04;39.87
9035;BME280;4552;43.422;24.592;2023-05-07T07:06:18;100251.03;;;21.16;41.73
9035;BME280;4552;43.422;24.592;2023-05-07T07:08:45;100254.78;;;21.12;40.24
9035;BME280;4552;43.422;24.592;2023-05-07T07:11:12;100254.44;;;21.35;39.81
9035;BME280;4552;43.422;24.592;2023-05-07T07:13:40;100254.13;;;21.41;38.72
9035;BME280;4552;43.422;24.592;2023-05-07T07:16:08;100260.94;;;21.47;39.65
9035;BME280;4552;43.422;24.592;2023-05-07T07:18:35;100258.63;;;21.24;40.36
9035;BME280;4552;43.422;24.592;2023-05-07T07:21:02;100254.84;;;21.28;41.19
9035;BME280;4552;43.422;24.592;2023-05-07T07:23:32;100255.25;;;21.03;40.88
9035;BME280;4552;43.422;24.592;2023-05-07T07:25:59;100251.09;;;21.15;42.01
9035;BME280;4552;43.422;24.592;2023-05-07T07:28:26;100260.16;;;21.28;42.08
9035;BME280;4552;43.422;24.592;2023-05-07T07:30:54;100266.72;;;21.55;41.88
9035;BME280;4552;43.422;24.592;2023-05-07T07:33:21;100266.53;;;21.75;41.87
9035;BME280;4552;43.422;24.592;2023-05-07T07:35:48;100249.69;;;21.74;41.33
9035;BME280;4552;43.422;24.592;2023-05-07T07:38:15;100239.44;;;21.67;41.05
9035;BME280;4552;43.422;24.592;2023-05-07T07:40:42;100262.53;;;21.66;41.49
9035;BME280;4552;43.422;24.592;2023-05-07T07:43:09;100263.69;;;21.45;41.68
9035;BME280;4552;43.422;24.592;2023-05-07T07:45:36;100265.63;;;21.59;41.68
9035;BME280;4552;43.422;24.592;2023-05-07T07:48:06;100268.34;;;21.74;41.36
9035;BME280;4552;43.422;24.592;2023-05-07T07:50:33;100262.97;;;21.91;41.57
9035;BME280;4552;43.422;24.592;2023-05-07T07:53:00;100263.25;;;21.70;40.06
9035;BME280;4552;43.422;24.592;2023-05-07T09:08:07;100225.47;;;22.10;35.63
9035;BME280;4552;43.422;24.592;2023-05-07T09:10:34;100213.97;;;22.25;35.65
9035;BME280;4552;43.422;24.592;2023-05-07T09:13:03;100232.47;;;22.28;36.18
9035;BME280;4552;43.422;24.592;2023-05-07T09:15:43;100227.34;;;22.70;36.47
9035;BME280;4552;43.422;24.592;2023-05-07T09:18:10;100217.22;;;23.05;35.32
9035;BME280;4552;43.422;24.592;2023-05-07T09:20:38;100221.53;;;22.78;34.99
9035;BME280;4552;43.422;24.592;2023-05-07T09:23:07;100222.41;;;22.78;35.10
9035;BME280;4552;43.422;24.592;2023-05-07T09:25:35;100214.84;;;22.71;34.16
9035;BME280;4552;43.422;24.592;2023-05-07T09:28:03;100206.72;;;22.58;34.65
9035;BME280;4552;43.422;24.592;2023-05-07T09:30:32;100212.06;;;23.02;35.63
9035;BME280;4552;43.422;24.592;2023-05-07T09:33:01;100206.94;;;23.13;34.34
9035;BME280;4552;43.422;24.592;2023-05-07T09:35:29;100203.97;;;22.89;34.26
9035;BME280;4552;43.422;24.592;2023-05-07T09:37:58;100207.31;;;22.63;34.88
9035;BME280;4552;43.422;24.592;2023-05-07T09:40:28;100203.44;;;22.53;34.58
9035;BME280;4552;43.422;24.592;2023-05-07T09:42:56;100209.34;;;22.74;35.64
9035;BME280;4552;43.422;24.592;2023-05-07T09:45:24;100191.38;;;22.46;34.48
9035;BME280;4552;43.422;24.592;2023-05-07T09:47:55;100192.47;;;22.42;33.97
9035;BME280;4552;43.422;24.592;2023-05-07T09:50:27;100204.94;;;22.73;34.49
9035;BME280;4552;43.422;24.592;2023-05-07T09:53:14;100205.34;;;22.51;34.38
9035;BME280;4552;43.422;24.592;2023-05-07T09:55:45;100197.25;;;22.37;34.59
9035;BME280;4552;43.422;24.592;2023-05-07T09:58:12;100207.66;;;22.42;34.29
9035;BME280;4552;43.422;24.592;2023-05-07T10:00:41;100200.72;;;22.23;34.09
9035;BME280;4552;43.422;24.592;2023-05-07T10:14:36;100193.88;;;22.49;35.52
9035;BME280;4552;43.422;24.592;2023-05-07T10:17:04;100190.16;;;22.36;34.87
9035;BME280;4552;43.422;24.592;2023-05-07T10:19:32;100185.28;;;22.28;34.66
9035;BME280;4552;43.422;24.592;2023-05-07T10:22:05;100184.00;;;22.20;35.51
9035;BME280;4552;43.422;24.592;2023-05-07T10:24:33;100174.34;;;22.33;34.97
9035;BME280;4552;43.422;24.592;2023-05-07T10:27:04;100178.97;;;22.45;35.71
9035;BME280;4552;43.422;24.592;2023-05-07T10:29:39;100167.38;;;22.76;35.00
9035;BME280;4552;43.422;24.592;2023-05-07T10:32:30;100167.72;;;22.99;33.55
9035;BME280;4552;43.422;24.592;2023-05-07T10:35:03;100180.72;;;23.05;35.43
9035;BME280;4552;43.422;24.592;2023-05-07T10:37:31;100150.38;;;23.06;33.23
9035;BME280;4552;43.422;24.592;2023-05-07T10:39:59;100151.03;;;22.82;33.59
9035;BME280;4552;43.422;24.592;2023-05-07T10:42:26;100147.31;;;22.98;33.90
9035;BME280;4552;43.422;24.592;2023-05-07T10:44:57;100161.31;;;23.31;33.86
9035;BME280;4552;43.422;24.592;2023-05-07T10:47:24;100158.03;;;23.26;33.92
9035;BME280;4552;43.422;24.592;2023-05-07T10:50:23;100150.47;;;23.05;33.05
9035;BME280;4552;43.422;24.592;2023-05-07T10:53:23;100145.03;;;23.06;33.06
9035;BME280;4552;43.422;24.592;2023-05-07T10:56:25;100147.25;;;22.70;33.26
9035;BME280;4552;43.422;24.592;2023-05-07T11:20:46;100125.19;;;23.66;32.54
9035;BME280;4552;43.422;24.592;2023-05-07T11:26:18;100118.75;;;23.42;32.57
9035;BME280;4552;43.422;24.592;2023-05-07T11:29:11;100107.06;;;23.57;32.68
9035;BME280;4552;43.422;24.592;2023-05-07T11:31:40;100117.88;;;23.56;32.67
9035;BME280;4552;43.422;24.592;2023-05-07T11:34:11;100123.56;;;23.78;32.46
9035;BME280;4552;43.422;24.592;2023-05-07T11:36:47;100111.44;;;23.58;32.58
9035;BME280;4552;43.422;24.592;2023-05-07T11:42:25;100106.09;;;23.58;31.88
9035;BME280;4552;43.422;24.592;2023-05-07T15:27:22;100007.38;;;23.96;34.09
9035;BME280;4552;43.422;24.592;2023-05-07T15:29:49;100000.75;;;24.02;34.46
9035;BME280;4552;43.422;24.592;2023-05-07T15:32:16;100003.31;;;24.03;33.98
9035;BME280;4552;43.422;24.592;2023-05-07T15:34:46;99996.16;;;24.04;33.96
9035;BME280;4552;43.422;24.592;2023-05-07T15:37:13;99994.56;;;24.14;33.64
9035;BME280;4552;43.422;24.592;2023-05-07T15:39:40;99994.22;;;24.06;33.68
9035;BME280;4552;43.422;24.592;2023-05-07T15:42:07;99992.53;;;24.05;33.96
9035;BME280;4552;43.422;24.592;2023-05-07T15:44:35;99984.41;;;24.06;33.22
9035;BME280;4552;43.422;24.592;2023-05-07T15:47:04;99980.56;;;23.57;34.37
9035;BME280;4552;43.422;24.592;2023-05-07T15:49:32;99977.56;;;23.49;34.55
9035;BME280;4552;43.422;24.592;2023-05-07T15:51:59;99983.34;;;23.55;34.02
9035;BME280;4552;43.422;24.592;2023-05-07T15:54:26;99976.88;;;23.59;34.11
9035;BME280;4552;43.422;24.592;2023-05-07T15:56:53;99969.97;;;23.55;34.19
9035;BME280;4552;43.422;24.592;2023-05-07T15:59:20;99968.31;;;23.40;33.89
9035;BME280;4552;43.422;24.592;2023-05-07T16:01:49;99980.09;;;23.38;34.81
9035;BME280;4552;43.422;24.592;2023-05-07T16:04:17;99978.53;;;23.34;35.42
9035;BME280;4552;43.422;24.592;2023-05-07T16:06:43;99969.91;;;23.30;35.36
9035;BME280;4552;43.422;24.592;2023-05-07T16:09:12;99964.16;;;23.22;35.14
9035;BME280;4552;43.422;24.592;2023-05-07T16:11:39;99971.56;;;23.45;35.11
9035;BME280;4552;43.422;24.592;2023-05-07T16:14:05;99972.34;;;23.47;35.04
9035;BME280;4552;43.422;24.592;2023-05-07T16:16:33;99973.88;;;23.37;35.00
9035;BME280;4552;43.422;24.592;2023-05-07T16:19:02;99973.94;;;23.50;35.03
9035;BME280;4552;43.422;24.592;2023-05-07T16:21:28;99982.19;;;23.33;35.06
9035;BME280;4552;43.422;24.592;2023-05-07T16:23:57;99972.16;;;23.36;35.58
9035;BME280;4552;43.422;24.592;2023-05-07T16:26:24;99970.94;;;23.28;35.21
9035;BME280;4552;43.422;24.592;2023-05-07T16:28:51;99961.00;;;23.16;35.82
9035;BME280;4552;43.422;24.592;2023-05-07T16:31:18;99964.09;;;23.10;35.90
9035;BME280;4552;43.422;24.592;2023-05-07T16:33:48;99958.66;;;22.97;36.38
9035;BME280;4552;43.422;24.592;2023-05-07T16:36:19;99961.78;;;23.32;36.15
9035;BME280;4552;43.422;24.592;2023-05-07T16:38:55;99960.19;;;23.15;36.14
9035;BME280;4552;43.422;24.592;2023-05-07T16:41:22;99965.16;;;23.07;36.03
9035;BME280;4552;43.422;24.592;2023-05-07T16:43:49;99968.72;;;23.20;36.50
9035;BME280;4552;43.422;24.592;2023-05-07T16:46:16;99963.91;;;22.99;36.89
9035;BME280;4552;43.422;24.592;2023-05-07T16:48:43;99974.34;;;22.89;37.05
9035;BME280;4552;43.422;24.592;2023-05-07T16:51:10;99956.78;;;22.85;37.32
9035;BME280;4552;43.422;24.592;2023-05-07T16:53:38;99963.16;;;23.11;37.22
9035;BME280;4552;43.422;24.592;2023-05-07T16:56:05;99965.06;;;22.95;37.75
9035;BME280;4552;43.422;24.592;2023-05-07T16:58:33;99978.03;;;22.87;38.06
9035;BME280;4552;43.422;24.592;2023-05-07T17:01:00;99971.28;;;22.95;37.70
9035;BME280;4552;43.422;24.592;2023-05-07T17:03:27;99971.66;;;22.75;38.86
9035;BME280;4552;43.422;24.592;2023-05-07T17:05:58;99968.91;;;22.63;38.58
9035;BME280;4552;43.422;24.592;2023-05-07T17:08:40;99981.28;;;22.64;39.64
9035;BME280;4552;43.422;24.592;2023-05-07T17:11:07;99981.13;;;22.53;39.47
9035;BME280;4552;43.422;24.592;2023-05-07T17:13:34;99982.50;;;22.44;40.00
9035;BME280;4552;43.422;24.592;2023-05-07T17:16:01;99976.56;;;22.39;39.84
9035;BME280;4552;43.422;24.592;2023-05-07T17:18:29;99974.84;;;22.38;40.58
9035;BME280;4552;43.422;24.592;2023-05-07T17:20:56;99976.75;;;22.22;40.19
9035;BME280;4552;43.422;24.592;2023-05-07T17:23:23;99984.19;;;22.31;40.70
9035;BME280;4552;43.422;24.592;2023-05-07T17:25:51;99984.38;;;22.42;40.39
